Vanquish — PHCU — position and weather

sailwx.info

Track history (hours):
 
Tides and Currents Weather Stations Pressure Air Temp Water Temp Dewpoint Dewpoint Depression Visibility Wind Speed Wind Dir Waves Ship Positions

Vanquish

Last reported at 2015-Apr-20 20:34 UTC. Time now 2015-Apr-21 05:00 UTC.
Position N 51°26' W 002°59'.

MMSI: 246138952.

Date/timePositionNaut miles runAvg speedWind from/ knotsBaromVisibWave heightAir tempDewpointWater temp
2015-Apr-20 20:34N 51°26' W 002°59'1110.5
2015-Apr-20 19:32N 51°30' W 002°43'0 0.3
2015-Apr-20 18:32N 51°30' W 002°42'0 0.0
2015-Apr-20 17:32N 51°30' W 002°42'0 0.0
2015-Apr-20 16:32N 51°30' W 002°42'0 0.0
2015-Apr-20 15:32N 51°30' W 002°42'0 0.0
2015-Apr-20 14:32N 51°30' W 002°42'0 0.0
2015-Apr-20 13:33N 51°30' W 002°42'0 0.0
2015-Apr-20 12:32N 51°30' W 002°42'0 0.0
2015-Apr-20 11:32N 51°30' W 002°42'0 0.0
2015-Apr-20 10:32N 51°30' W 002°42'0 0.0
2015-Apr-20 09:32N 51°30' W 002°42'0 0.0
2015-Apr-20 08:32N 51°30' W 002°42'0 0.0
2015-Apr-20 07:32N 51°30' W 002°42'0 0.0
2015-Apr-20 06:33N 51°30' W 002°42'0 0.0
2015-Apr-20 05:32N 51°30' W 002°42'0 0.0
2015-Apr-20 04:32N 51°30' W 002°42'0 0.0
2015-Apr-20 03:32N 51°30' W 002°42'0 0.0
2015-Apr-20 02:32N 51°30' W 002°42'0 0.0
2015-Apr-20 01:32N 51°30' W 002°42'0 0.0
2015-Apr-20 00:32N 51°30' W 002°42'0 0.0
2015-Apr-19 23:32N 51°30' W 002°42'0 0.0
2015-Apr-19 22:32N 51°30' W 002°42'0 0.0
2015-Apr-19 21:32N 51°30' W 002°42'0 0.0
2015-Apr-19 20:32N 51°30' W 002°42'0 0.0
2015-Apr-19 19:32N 51°30' W 002°42'0 0.0
2015-Apr-19 18:32N 51°30' W 002°42'0 0.0
2015-Apr-19 17:32N 51°30' W 002°42'0 0.0
2015-Apr-19 16:32N 51°30' W 002°42'0 0.0
2015-Apr-19 15:32N 51°30' W 002°42'0 0.0
2015-Apr-19 14:32N 51°30' W 002°42'0 0.0
2015-Apr-19 13:32N 51°30' W 002°42'0 0.0
2015-Apr-19 12:32N 51°30' W 002°42'0 0.0
2015-Apr-19 11:32N 51°30' W 002°42'0 0.0
2015-Apr-19 10:32N 51°30' W 002°42'0 0.0
2015-Apr-19 09:32N 51°30' W 002°42'0 0.0
2015-Apr-19 08:32N 51°30' W 002°42'0 0.0
2015-Apr-19 07:32N 51°30' W 002°42'0 0.0
2015-Apr-19 06:32N 51°30' W 002°42'0 0.0
2015-Apr-19 05:32N 51°30' W 002°42'0 0.0
2015-Apr-19 04:32N 51°30' W 002°42'0 0.0
2015-Apr-19 03:32N 51°30' W 002°42'0 0.0
2015-Apr-19 02:29N 51°30' W 002°42'0 0.0
2015-Apr-19 01:32N 51°30' W 002°42'0 0.0
2015-Apr-19 00:29N 51°30' W 002°42'0 0.0
2015-Apr-18 23:32N 51°30' W 002°42'0 0.0
2015-Apr-18 22:32N 51°30' W 002°42'0 0.0
2015-Apr-18 21:32N 51°30' W 002°42'0 0.0
2015-Apr-18 20:32N 51°30' W 002°42'0 0.0
2015-Apr-18 19:32N 51°30' W 002°42'0 0.2
2015-Apr-18 18:33N 51°30' W 002°42'1 0.9
2015-Apr-18 17:33N 51°30' W 002°44'1413.9
2015-Apr-18 16:33N 51°24' W 003°04'155 9.0
2015-Apr-17 23:12N 53°24' W 005°45'913.4
2015-Apr-17 22:33N 53°33' W 005°49'1312.9
2015-Apr-17 21:33N 53°45' W 005°55'24 1.0
2015-Apr-16 22:33N 54°06' W 006°15'1010.6
2015-Apr-16 21:33N 53°59' W 006°02'1312.6
2015-Apr-16 20:33N 53°46' W 005°56'17510.1
2015-Apr-16 03:13N 51°24' W 003°07'812.5
2015-Apr-16 02:33N 51°27' W 002°55'8 8.0
2015-Apr-16 01:34N 51°30' W 002°43'0 0.3
2015-Apr-16 00:33N 51°30' W 002°42'0 0.0
2015-Apr-15 23:33N 51°30' W 002°42'0 0.0
2015-Apr-15 22:33N 51°30' W 002°42'0 0.0
2015-Apr-15 21:33N 51°30' W 002°42'0 0.0
2015-Apr-15 20:33N 51°30' W 002°42'0 0.0
2015-Apr-15 19:33N 51°30' W 002°42'0 0.0
2015-Apr-15 18:33N 51°30' W 002°42'0 0.0
2015-Apr-15 17:29N 51°30' W 002°42'0 0.0
2015-Apr-15 16:33N 51°30' W 002°42'0 0.0
2015-Apr-15 15:32N 51°30' W 002°42'0 0.0
2015-Apr-15 14:32N 51°30' W 002°42'0 0.0
2015-Apr-15 13:32N 51°30' W 002°42'0 0.0
2015-Apr-15 12:32N 51°30' W 002°42'0 0.0
2015-Apr-15 11:32N 51°30' W 002°42'0 0.0
2015-Apr-15 10:32N 51°30' W 002°42'0 0.0
2015-Apr-15 09:32N 51°30' W 002°42'0 0.0
2015-Apr-15 08:32N 51°30' W 002°42'0 0.0
2015-Apr-15 07:32N 51°30' W 002°42'0 0.0
2015-Apr-15 06:32N 51°30' W 002°42'0 0.0
2015-Apr-15 05:30N 51°30' W 002°42'0 0.0
2015-Apr-15 04:32N 51°30' W 002°42'0 0.0
2015-Apr-15 03:32N 51°30' W 002°42'0 0.0
2015-Apr-15 02:33N 51°30' W 002°42'0 0.4
2015-Apr-15 01:33N 51°30' W 002°43'7 6.9
2015-Apr-15 00:33N 51°28' W 002°53'166 6.4
2015-Apr-13 22:33N 53°35' W 005°48'30 0.8
2015-Apr-12 10:22N 54°02' W 006°08'194 9.8
2015-Apr-11 14:33N 51°24' W 003°04'1414.4
2015-Apr-11 13:33N 51°30' W 002°43'0 0.4
2015-Apr-11 12:34N 51°30' W 002°42'0 0.0
2015-Apr-11 11:30N 51°30' W 002°42'0 0.0
2015-Apr-11 10:31N 51°30' W 002°42'0 0.0
2015-Apr-11 09:31N 51°30' W 002°42'0 0.0
2015-Apr-11 08:31N 51°30' W 002°42'0 0.0
2015-Apr-11 07:31N 51°30' W 002°42'0 0.0
2015-Apr-11 06:33N 51°30' W 002°42'0 0.0
2015-Apr-11 05:31N 51°30' W 002°42'0 0.0
2015-Apr-11 04:33N 51°30' W 002°42'0 0.0
2015-Apr-11 03:34N 51°30' W 002°42'0 0.0
2015-Apr-11 02:33N 51°30' W 002°42'0 0.0
2015-Apr-11 01:33N 51°30' W 002°42'0 0.0
2015-Apr-11 00:34N 51°30' W 002°42'0 0.0
2015-Apr-10 23:33N 51°30' W 002°42'0 0.0
2015-Apr-10 22:33N 51°30' W 002°42'0 0.0
2015-Apr-10 21:33N 51°30' W 002°42'  
Track history (hours):
 
Tides and Currents Weather Stations Pressure Air Temp Water Temp Dewpoint Dewpoint Depression Visibility Wind Speed Wind Dir Waves Ship Positions

Vanquish

Last reported at 2015-Apr-20 20:34 UTC. Time now 2015-Apr-21 05:00 UTC.
Position N 51°26' W 002°59'.

MMSI: 246138952.

Date/timePositionNaut miles runAvg speedWind from/ knotsBaromVisibWave heightAir tempDewpointWater temp
2015-Apr-20 20:34N 51°26' W 002°59'1110.5
2015-Apr-20 19:32N 51°30' W 002°43'0 0.3
2015-Apr-20 18:32N 51°30' W 002°42'0 0.0
2015-Apr-20 17:32N 51°30' W 002°42'0 0.0
2015-Apr-20 16:32N 51°30' W 002°42'0 0.0
2015-Apr-20 15:32N 51°30' W 002°42'0 0.0
2015-Apr-20 14:32N 51°30' W 002°42'0 0.0
2015-Apr-20 13:33N 51°30' W 002°42'0 0.0
2015-Apr-20 12:32N 51°30' W 002°42'0 0.0
2015-Apr-20 11:32N 51°30' W 002°42'0 0.0
2015-Apr-20 10:32N 51°30' W 002°42'0 0.0
2015-Apr-20 09:32N 51°30' W 002°42'0 0.0
2015-Apr-20 08:32N 51°30' W 002°42'0 0.0
2015-Apr-20 07:32N 51°30' W 002°42'0 0.0
2015-Apr-20 06:33N 51°30' W 002°42'0 0.0
2015-Apr-20 05:32N 51°30' W 002°42'0 0.0
2015-Apr-20 04:32N 51°30' W 002°42'0 0.0
2015-Apr-20 03:32N 51°30' W 002°42'0 0.0
2015-Apr-20 02:32N 51°30' W 002°42'0 0.0
2015-Apr-20 01:32N 51°30' W 002°42'0 0.0
2015-Apr-20 00:32N 51°30' W 002°42'0 0.0
2015-Apr-19 23:32N 51°30' W 002°42'0 0.0
2015-Apr-19 22:32N 51°30' W 002°42'0 0.0
2015-Apr-19 21:32N 51°30' W 002°42'0 0.0
2015-Apr-19 20:32N 51°30' W 002°42'0 0.0
2015-Apr-19 19:32N 51°30' W 002°42'0 0.0
2015-Apr-19 18:32N 51°30' W 002°42'0 0.0
2015-Apr-19 17:32N 51°30' W 002°42'0 0.0
2015-Apr-19 16:32N 51°30' W 002°42'0 0.0
2015-Apr-19 15:32N 51°30' W 002°42'0 0.0
2015-Apr-19 14:32N 51°30' W 002°42'0 0.0
2015-Apr-19 13:32N 51°30' W 002°42'0 0.0
2015-Apr-19 12:32N 51°30' W 002°42'0 0.0
2015-Apr-19 11:32N 51°30' W 002°42'0 0.0
2015-Apr-19 10:32N 51°30' W 002°42'0 0.0
2015-Apr-19 09:32N 51°30' W 002°42'0 0.0
2015-Apr-19 08:32N 51°30' W 002°42'0 0.0
2015-Apr-19 07:32N 51°30' W 002°42'0 0.0
2015-Apr-19 06:32N 51°30' W 002°42'0 0.0
2015-Apr-19 05:32N 51°30' W 002°42'0 0.0
2015-Apr-19 04:32N 51°30' W 002°42'0 0.0
2015-Apr-19 03:32N 51°30' W 002°42'0 0.0
2015-Apr-19 02:29N 51°30' W 002°42'0 0.0
2015-Apr-19 01:32N 51°30' W 002°42'0 0.0
2015-Apr-19 00:29N 51°30' W 002°42'0 0.0
2015-Apr-18 23:32N 51°30' W 002°42'0 0.0
2015-Apr-18 22:32N 51°30' W 002°42'0 0.0
2015-Apr-18 21:32N 51°30' W 002°42'0 0.0
2015-Apr-18 20:32N 51°30' W 002°42'0 0.0
2015-Apr-18 19:32N 51°30' W 002°42'0 0.2
2015-Apr-18 18:33N 51°30' W 002°42'1 0.9
2015-Apr-18 17:33N 51°30' W 002°44'1413.9
2015-Apr-18 16:33N 51°24' W 003°04'155 9.0
2015-Apr-17 23:12N 53°24' W 005°45'913.4
2015-Apr-17 22:33N 53°33' W 005°49'1312.9
2015-Apr-17 21:33N 53°45' W 005°55'24 1.0
2015-Apr-16 22:33N 54°06' W 006°15'1010.6
2015-Apr-16 21:33N 53°59' W 006°02'1312.6
2015-Apr-16 20:33N 53°46' W 005°56'17510.1
2015-Apr-16 03:13N 51°24' W 003°07'812.5
2015-Apr-16 02:33N 51°27' W 002°55'8 8.0
2015-Apr-16 01:34N 51°30' W 002°43'0 0.3
2015-Apr-16 00:33N 51°30' W 002°42'0 0.0
2015-Apr-15 23:33N 51°30' W 002°42'0 0.0
2015-Apr-15 22:33N 51°30' W 002°42'0 0.0
2015-Apr-15 21:33N 51°30' W 002°42'0 0.0
2015-Apr-15 20:33N 51°30' W 002°42'0 0.0
2015-Apr-15 19:33N 51°30' W 002°42'0 0.0
2015-Apr-15 18:33N 51°30' W 002°42'0 0.0
2015-Apr-15 17:29N 51°30' W 002°42'0 0.0
2015-Apr-15 16:33N 51°30' W 002°42'0 0.0
2015-Apr-15 15:32N 51°30' W 002°42'0 0.0
2015-Apr-15 14:32N 51°30' W 002°42'0 0.0
2015-Apr-15 13:32N 51°30' W 002°42'0 0.0
2015-Apr-15 12:32N 51°30' W 002°42'0 0.0
2015-Apr-15 11:32N 51°30' W 002°42'0 0.0
2015-Apr-15 10:32N 51°30' W 002°42'0 0.0
2015-Apr-15 09:32N 51°30' W 002°42'0 0.0
2015-Apr-15 08:32N 51°30' W 002°42'0 0.0
2015-Apr-15 07:32N 51°30' W 002°42'0 0.0
2015-Apr-15 06:32N 51°30' W 002°42'0 0.0
2015-Apr-15 05:30N 51°30' W 002°42'0 0.0
2015-Apr-15 04:32N 51°30' W 002°42'0 0.0
2015-Apr-15 03:32N 51°30' W 002°42'0 0.0
2015-Apr-15 02:33N 51°30' W 002°42'0 0.4
2015-Apr-15 01:33N 51°30' W 002°43'7 6.9
2015-Apr-15 00:33N 51°28' W 002°53'166 6.4
2015-Apr-13 22:33N 53°35' W 005°48'30 0.8
2015-Apr-12 10:22N 54°02' W 006°08'194 9.8
2015-Apr-11 14:33N 51°24' W 003°04'1414.4
2015-Apr-11 13:33N 51°30' W 002°43'0 0.4
2015-Apr-11 12:34N 51°30' W 002°42'0 0.0
2015-Apr-11 11:30N 51°30' W 002°42'0 0.0
2015-Apr-11 10:31N 51°30' W 002°42'0 0.0
2015-Apr-11 09:31N 51°30' W 002°42'0 0.0
2015-Apr-11 08:31N 51°30' W 002°42'0 0.0
2015-Apr-11 07:31N 51°30' W 002°42'0 0.0
2015-Apr-11 06:33N 51°30' W 002°42'0 0.0
2015-Apr-11 05:31N 51°30' W 002°42'0 0.0
2015-Apr-11 04:33N 51°30' W 002°42'0 0.0
2015-Apr-11 03:34N 51°30' W 002°42'0 0.0
2015-Apr-11 02:33N 51°30' W 002°42'0 0.0
2015-Apr-11 01:33N 51°30' W 002°42'0 0.0
2015-Apr-11 00:34N 51°30' W 002°42'0 0.0
2015-Apr-10 23:33N 51°30' W 002°42'0 0.0
2015-Apr-10 22:33N 51°30' W 002°42'0 0.0
2015-Apr-10 21:33N 51°30' W 002°42'  

Dump ship's entire track history